Terminal Aerodrome Forecast
Issued by NWS Los Angeles, CA

Home | Current Version | Previous Version | Text Only | Print | Product List | Glossary On
Versions: 1 2 3 4 5 6 7 8 9 10 11 12 13 14 15 16 17 18 19 20 21 22 23 24 25
000
FTUS46 KLOX 210200 AAA
TAFSMX
TAF AMD
KSMX 210238Z 2103/2124 31010KT P6SM SCT015 SCT120 SCT250
     FM210400 31007KT 6SM BR OVC010
     FM210900 VRB03KT 6SM BR BKN007 OVC015
     FM211600 30005KT P6SM BKN015
     FM211900 30009KT P6SM SCT015 SCT250
     FM212200 30013KT P6SM FEW015 SCT250=

USA.gov is the U.S. government's official web portal to all federal, state and local government web resources and services.